Time;durP1;ratioP1;P1;durP2;ratioP2;P2;SDS_P1;SDS_P2;PMS_P1;PMS_P2;Temp;Humidity;BMP_temperature;BMP_pressure;BME280_temperature;BME280_humidity;BME280_pressure;Samples;Min_cycle;Max_cycle;Signal;HPM_P1;HPM_P2
2022/12/03 00:01:05;;;;;;;12.95;7.07;;;2.90;99.90;;;;;;5035043;28;20053;-66
2022/12/03 00:03:34;;;;;;;14.13;7.80;;;3.00;99.90;;;;;;5033002;28;20057;-66
2022/12/03 00:06:00;;;;;;;15.32;7.82;;;2.90;99.90;;;;;;5034586;28;20053;-66
2022/12/03 00:08:25;;;;;;;17.70;8.90;;;2.90;99.90;;;;;;5034819;28;20053;-66
2022/12/03 00:10:51;;;;;;;15.43;7.90;;;2.90;99.90;;;;;;5034334;28;20049;-66
2022/12/03 00:13:17;;;;;;;15.27;8.13;;;2.90;99.90;;;;;;5034221;28;20116;-65
2022/12/03 00:15:42;;;;;;;14.32;8.13;;;2.90;99.90;;;;;;5110675;28;20474;-66
2022/12/03 00:18:08;;;;;;;15.48;8.70;;;2.90;99.90;;;;;;5101318;28;20141;-66
2022/12/03 00:20:34;;;;;;;19.13;9.23;;;2.90;99.90;;;;;;5116984;28;20047;-66
2022/12/03 00:22:59;;;;;;;17.27;8.75;;;3.30;99.90;;;;;;5117982;28;20051;-67
2022/12/03 00:25:25;;;;;;;15.68;8.07;;;2.90;99.90;;;;;;5116487;28;20079;-66
2022/12/03 00:27:51;;;;;;;15.63;7.95;;;2.80;99.90;;;;;;5117520;28;20040;-66
2022/12/03 00:30:16;;;;;;;17.90;8.75;;;2.80;99.90;;;;;;5118701;28;20079;-66
2022/12/03 00:32:42;;;;;;;15.10;8.45;;;2.80;99.90;;;;;;5117812;28;20111;-66
2022/12/03 00:35:08;;;;;;;17.05;8.90;;;2.80;99.90;;;;;;5117959;28;20054;-66
2022/12/03 00:37:34;;;;;;;16.70;8.57;;;2.80;99.90;;;;;;5037033;28;20046;-66
2022/12/03 00:40:01;;;;;;;15.02;7.85;;;2.90;99.90;;;;;;5017763;28;20064;-66
2022/12/03 00:42:27;;;;;;;15.90;8.15;;;2.80;99.90;;;;;;5032999;28;20045;-65
2022/12/03 00:44:53;;;;;;;16.17;8.52;;;2.80;99.90;;;;;;5035036;28;20077;-66
2022/12/03 00:47:18;;;;;;;17.10;8.07;;;2.80;99.90;;;;;;5035010;28;20053;-67
2022/12/03 00:49:44;;;;;;;16.23;9.07;;;2.80;99.90;;;;;;5034104;28;20053;-67
2022/12/03 00:52:10;;;;;;;16.73;8.25;;;2.80;99.90;;;;;;5035500;28;20052;-66
2022/12/03 00:54:36;;;;;;;17.13;8.30;;;2.90;99.90;;;;;;5033505;28;20114;-66
2022/12/03 00:57:02;;;;;;;17.52;8.80;;;2.90;99.90;;;;;;5035373;28;20053;-67
2022/12/03 00:59:28;;;;;;;15.43;7.93;;;2.90;99.90;;;;;;5032998;28;20038;-66
2022/12/03 01:01:53;;;;;;;16.42;8.00;;;3.00;99.90;;;;;;5033080;28;20057;-66
2022/12/03 01:04:19;;;;;;;18.55;9.05;;;3.00;99.90;;;;;;5032623;28;20085;-66
2022/12/03 01:06:45;;;;;;;15.20;8.50;;;3.00;99.90;;;;;;5016472;28;20068;-67
2022/12/03 01:09:10;;;;;;;17.90;8.90;;;3.00;99.90;;;;;;5017261;28;20053;-66
2022/12/03 01:11:36;;;;;;;14.63;9.23;;;3.00;99.90;;;;;;5033155;28;20061;-67
2022/12/03 01:14:06;;;;;;;14.93;8.43;;;3.00;99.90;;;;;;5009428;28;20038;-67
2022/12/03 01:16:32;;;;;;;16.60;8.60;;;3.40;99.90;;;;;;4993923;28;20062;-67
2022/12/03 01:18:58;;;;;;;16.13;9.48;;;3.00;99.90;;;;;;4995819;28;20054;-66
2022/12/03 01:21:23;;;;;;;17.02;9.07;;;3.10;99.90;;;;;;4994688;28;20042;-67
2022/12/03 01:23:49;;;;;;;15.15;8.48;;;3.10;99.90;;;;;;4992938;28;20082;-66
2022/12/03 01:26:15;;;;;;;14.73;8.35;;;3.10;99.90;;;;;;4993971;28;20045;-67
2022/12/03 01:28:40;;;;;;;15.95;9.38;;;3.10;99.90;;;;;;4992404;28;20050;-67
2022/12/03 01:33:51;;;;;;;15.88;9.02;;;3.10;99.90;;;;;;4991146;28;20073;-67
2022/12/03 01:36:17;;;;;;;14.60;8.45;;;3.10;99.90;;;;;;5046288;28;20044;-67
2022/12/03 01:38:43;;;;;;;15.93;7.35;;;3.10;99.90;;;;;;5117442;28;20130;-66
2022/12/03 01:41:09;;;;;;;15.02;8.25;;;3.10;99.90;;;;;;5115060;28;20057;-66
2022/12/03 01:43:35;;;;;;;16.17;8.68;;;3.10;99.90;;;;;;5115956;28;20063;-65
2022/12/03 01:46:01;;;;;;;15.27;8.73;;;3.10;99.90;;;;;;5114776;28;20051;-66
2022/12/03 01:48:31;;;;;;;13.38;8.10;;;3.10;99.90;;;;;;5118164;28;20058;-66
2022/12/03 01:50:56;;;;;;;17.80;8.82;;;3.10;99.90;;;;;;5114931;28;20046;-65
2022/12/03 01:53:22;;;;;;;15.00;7.97;;;3.10;99.90;;;;;;5117876;28;20039;-67
2022/12/03 01:55:48;;;;;;;14.77;8.82;;;3.30;99.90;;;;;;5099018;28;20044;-66
2022/12/03 01:58:14;;;;;;;14.80;8.82;;;3.00;99.90;;;;;;5115294;28;20082;-66
2022/12/03 02:00:40;;;;;;;14.75;7.63;;;3.10;99.90;;;;;;5117844;28;20066;-67
2022/12/03 02:03:19;;;;;;;16.27;8.88;;;3.00;99.90;;;;;;5114521;28;20487;-66
2022/12/03 02:05:45;;;;;;;16.92;8.48;;;3.10;99.90;;;;;;5118136;28;20050;-66
2022/12/03 02:08:26;;;;;;;18.13;9.40;;;3.00;99.90;;;;;;5116378;28;20036;-66
2022/12/03 02:10:52;;;;;;;16.45;8.85;;;3.00;99.90;;;;;;5117139;28;20047;-66
2022/12/03 02:13:18;;;;;;;15.00;8.75;;;3.10;99.90;;;;;;5117369;28;20511;-65
2022/12/03 02:15:44;;;;;;;14.88;8.38;;;3.10;99.90;;;;;;4999274;28;20051;-66
2022/12/03 02:18:10;;;;;;;16.30;8.90;;;3.10;99.90;;;;;;4977586;28;20105;-66
2022/12/03 02:20:49;;;;;;;14.73;8.07;;;3.10;99.90;;;;;;4993172;28;20050;-66
2022/12/03 02:23:30;;;;;;;15.38;9.57;;;3.10;99.90;;;;;;4993496;28;20099;-66
2022/12/03 02:25:56;;;;;;;15.60;8.20;;;3.60;99.90;;;;;;4993304;28;20046;-65
2022/12/03 02:28:21;;;;;;;15.85;9.23;;;3.10;99.90;;;;;;4992523;28;20102;-66
2022/12/03 02:30:47;;;;;;;13.48;8.00;;;3.10;99.90;;;;;;4993557;28;20490;-65
2022/12/03 02:33:13;;;;;;;14.35;8.57;;;3.10;99.90;;;;;;4991507;28;20446;-66
2022/12/03 02:35:39;;;;;;;16.10;8.70;;;3.10;99.90;;;;;;5001567;28;20069;-66
2022/12/03 02:38:11;;;;;;;15.43;8.32;;;3.10;99.90;;;;;;5030920;28;20038;-66
2022/12/03 02:40:37;;;;;;;16.52;8.95;;;3.20;99.90;;;;;;5032282;28;20084;-66
2022/12/03 02:43:04;;;;;;;16.23;9.32;;;3.10;99.90;;;;;;5032857;28;20049;-66
2022/12/03 02:45:33;;;;;;;13.30;7.70;;;3.10;99.90;;;;;;5034275;28;20123;-65
2022/12/03 02:48:10;;;;;;;14.60;7.82;;;3.30;99.90;;;;;;5036239;28;20049;-66
2022/12/03 02:50:42;;;;;;;14.70;8.43;;;3.10;99.90;;;;;;5034414;28;20077;-66
2022/12/03 02:53:13;;;;;;;14.45;8.35;;;3.10;99.90;;;;;;5034592;28;20076;-66
2022/12/03 02:55:40;;;;;;;15.55;8.73;;;3.10;99.90;;;;;;5016597;28;20073;-66
2022/12/03 02:58:06;;;;;;;14.88;8.60;;;3.20;99.90;;;;;;5016731;28;20077;-65
2022/12/03 03:00:34;;;;;;;16.67;8.35;;;3.20;99.90;;;;;;5017753;28;20042;-66
2022/12/03 03:03:01;;;;;;;15.18;8.15;;;3.10;99.90;;;;;;5014174;28;20060;-67
2022/12/03 03:05:27;;;;;;;16.95;10.13;;;3.10;99.90;;;;;;5015936;28;20084;-66
2022/12/03 03:07:53;;;;;;;15.93;9.93;;;3.10;99.90;;;;;;5014373;28;20050;-65
2022/12/03 03:10:22;;;;;;;14.70;8.30;;;3.10;99.90;;;;;;5017365;28;20057;-65
2022/12/03 03:12:49;;;;;;;16.63;8.85;;;3.10;99.90;;;;;;5016003;28;20124;-65
2022/12/03 03:15:15;;;;;;;14.43;8.25;;;3.10;99.90;;;;;;5030467;28;20088;-66
2022/12/03 03:17:42;;;;;;;16.20;9.00;;;3.10;99.90;;;;;;5035186;28;20053;-67
2022/12/03 03:20:09;;;;;;;16.60;8.82;;;3.00;99.90;;;;;;5014161;28;20080;-66
2022/12/03 03:22:38;;;;;;;15.70;8.60;;;3.10;99.90;;;;;;5017156;28;20121;-66
2022/12/03 03:25:06;;;;;;;17.35;8.75;;;3.00;99.90;;;;;;5014153;28;20060;-66
2022/12/03 03:27:33;;;;;;;17.13;8.45;;;3.00;99.90;;;;;;5015688;28;20428;-66
2022/12/03 03:29:59;;;;;;;13.65;8.40;;;3.00;99.90;;;;;;4998246;28;20046;-66
2022/12/03 03:32:27;;;;;;;16.83;8.73;;;3.00;99.90;;;;;;5014254;28;20129;-66
2022/12/03 03:34:53;;;;;;;17.00;9.75;;;2.90;99.90;;;;;;5098465;28;20052;-66
2022/12/03 03:37:19;;;;;;;13.25;7.75;;;2.90;99.90;;;;;;5118153;28;20051;-66
2022/12/03 03:39:45;;;;;;;13.73;8.32;;;2.90;99.90;;;;;;5101915;28;20605;-67
2022/12/03 03:42:11;;;;;;;15.30;8.98;;;2.90;99.90;;;;;;5116668;28;20054;-65
2022/12/03 03:44:37;;;;;;;13.75;8.18;;;3.20;99.90;;;;;;5120246;28;20040;-66
2022/12/03 03:47:03;;;;;;;16.10;9.07;;;2.80;99.90;;;;;;5117547;28;20039;-66
2022/12/03 03:49:28;;;;;;;14.77;7.82;;;2.80;99.90;;;;;;5119124;28;20039;-66
2022/12/03 03:51:54;;;;;;;15.88;9.18;;;2.80;99.90;;;;;;5118986;28;20416;-66
2022/12/03 03:54:21;;;;;;;15.80;8.45;;;2.80;99.90;;;;;;5116775;28;20055;-66
2022/12/03 03:56:47;;;;;;;14.50;8.45;;;2.80;99.90;;;;;;5119336;28;20089;-66
2022/12/03 03:59:13;;;;;;;14.45;8.57;;;2.80;99.90;;;;;;5118105;28;20501;-66
2022/12/03 04:01:39;;;;;;;15.70;8.55;;;2.80;99.90;;;;;;5119847;28;20039;-66
2022/12/03 04:04:21;;;;;;;14.48;7.80;;;2.80;99.90;;;;;;5118777;28;20419;-66
2022/12/03 04:06:47;;;;;;;14.55;7.65;;;2.70;99.90;;;;;;5118539;28;20044;-66
2022/12/03 04:09:13;;;;;;;15.38;9.10;;;2.70;99.90;;;;;;5120030;28;20087;-67
2022/12/03 04:14:22;;;;;;;15.82;8.40;;;2.70;99.90;;;;;;5089062;28;20049;-66
2022/12/03 04:16:48;;;;;;;14.15;8.40;;;2.70;99.90;;;;;;5034449;28;20066;-67
2022/12/03 04:19:14;;;;;;;16.42;9.95;;;2.80;99.90;;;;;;5035670;28;20081;-67
2022/12/03 04:24:24;;;;;;;15.10;8.90;;;2.70;99.90;;;;;;5033978;28;20050;-66
2022/12/03 04:29:34;;;;;;;16.70;9.23;;;2.70;99.90;;;;;;5033899;28;20580;-66
2022/12/03 04:37:28;;;;;;;13.80;8.05;;;2.60;99.90;;;;;;5110463;28;20079;-66
2022/12/03 04:39:54;;;;;;;14.80;8.35;;;2.60;99.90;;;;;;5101134;28;20055;-67
2022/12/03 04:42:19;;;;;;;15.00;8.40;;;2.60;99.90;;;;;;5117018;28;20541;-67
2022/12/03 04:44:45;;;;;;;15.63;8.95;;;2.70;99.90;;;;;;5117156;28;20050;-67
2022/12/03 04:47:16;;;;;;;18.05;9.52;;;2.60;99.90;;;;;;5118610;28;20055;-66
2022/12/03 04:49:49;;;;;;;15.00;8.68;;;2.60;99.90;;;;;;5117467;28;20058;-68
2022/12/03 04:52:18;;;;;;;15.88;8.40;;;2.60;99.90;;;;;;5117903;28;20062;-67
2022/12/03 04:54:43;;;;;;;16.92;8.75;;;2.60;99.90;;;;;;5116639;28;20046;-67
2022/12/03 04:57:10;;;;;;;17.85;9.30;;;2.60;99.90;;;;;;5116632;28;20047;-66
2022/12/03 04:59:37;;;;;;;13.30;7.75;;;2.90;99.90;;;;;;5116425;28;20530;-66
2022/12/03 05:02:04;;;;;;;16.50;9.45;;;2.60;99.90;;;;;;5117141;28;20047;-67
2022/12/03 05:04:30;;;;;;;15.60;8.75;;;2.50;99.90;;;;;;5117656;28;20418;-67
2022/12/03 05:06:56;;;;;;;16.40;9.00;;;2.50;99.90;;;;;;5117150;28;20599;-67
2022/12/03 05:09:22;;;;;;;16.33;8.95;;;2.90;99.90;;;;;;5119068;28;20338;-67
2022/12/03 05:11:48;;;;;;;15.77;8.93;;;2.50;99.90;;;;;;5115362;28;20036;-68
2022/12/03 05:14:13;;;;;;;16.73;9.43;;;2.50;99.90;;;;;;5086482;28;20053;-68
2022/12/03 05:16:39;;;;;;;15.13;8.68;;;2.50;99.90;;;;;;5056017;28;20051;-67
2022/12/03 05:19:06;;;;;;;15.13;8.77;;;2.50;99.90;;;;;;5007059;28;20593;-66
2022/12/03 05:21:32;;;;;;;15.80;9.23;;;2.50;99.90;;;;;;4995306;28;20046;-67
2022/12/03 05:23:57;;;;;;;15.27;9.05;;;2.50;99.90;;;;;;5003907;28;20102;-67
2022/12/03 05:26:23;;;;;;;16.38;9.23;;;2.50;99.90;;;;;;5035370;28;20118;-66
2022/12/03 05:28:49;;;;;;;14.73;8.93;;;2.60;99.90;;;;;;5015409;28;20054;-67
2022/12/03 05:31:15;;;;;;;17.70;10.38;;;2.50;99.90;;;;;;5034870;28;20045;-66
2022/12/03 05:33:41;;;;;;;16.88;9.55;;;2.50;99.90;;;;;;5030599;28;20058;-66
2022/12/03 05:36:07;;;;;;;15.02;8.80;;;2.50;99.90;;;;;;5084969;28;20419;-66
2022/12/03 05:38:32;;;;;;;16.75;8.80;;;2.50;99.90;;;;;;5056695;28;20049;-67
2022/12/03 05:40:58;;;;;;;16.60;9.30;;;2.60;99.90;;;;;;5033536;28;20041;-66
2022/12/03 05:43:24;;;;;;;16.77;8.90;;;2.40;99.90;;;;;;5115764;28;20559;-66
2022/12/03 05:45:50;;;;;;;17.00;9.52;;;2.50;99.90;;;;;;5116405;28;20053;-65
2022/12/03 05:48:16;;;;;;;16.35;9.45;;;2.40;99.90;;;;;;5117079;28;20066;-66
2022/12/03 05:50:44;;;;;;;17.02;9.48;;;2.40;99.90;;;;;;5077922;28;20440;-65
2022/12/03 05:53:10;;;;;;;20.10;10.43;;;2.40;99.90;;;;;;5034500;28;20107;-66
2022/12/03 05:55:36;;;;;;;17.65;10.05;;;2.40;99.90;;;;;;5032196;28;20038;-66
2022/12/03 05:58:02;;;;;;;16.80;9.98;;;2.40;99.90;;;;;;5033669;28;20036;-66
2022/12/03 06:00:32;;;;;;;18.25;10.05;;;2.90;99.90;;;;;;5050361;28;20029;-66
2022/12/03 06:02:57;;;;;;;19.90;10.85;;;2.40;99.90;;;;;;5105863;28;20048;-66
2022/12/03 06:05:24;;;;;;;17.83;10.85;;;2.50;99.90;;;;;;5034596;28;20140;-66
2022/12/03 06:07:51;;;;;;;18.73;9.90;;;2.40;99.90;;;;;;5009789;28;20046;-67
2022/12/03 06:10:20;;;;;;;18.67;10.45;;;2.40;99.90;;;;;;5014704;28;20050;-67
2022/12/03 06:12:46;;;;;;;17.58;10.07;;;2.40;99.90;;;;;;5012894;28;20092;-67
2022/12/03 06:15:13;;;;;;;18.63;10.18;;;2.40;99.90;;;;;;5037439;28;20498;-65
2022/12/03 06:17:39;;;;;;;19.83;9.93;;;2.40;99.90;;;;;;5081167;28;20068;-65
2022/12/03 06:20:05;;;;;;;20.45;11.32;;;2.50;99.90;;;;;;5066493;28;20038;-65
2022/12/03 06:22:33;;;;;;;22.85;11.57;;;2.40;99.90;;;;;;5036621;28;20054;-65
2022/12/03 06:24:59;;;;;;;18.65;10.68;;;2.30;99.90;;;;;;5013342;28;20046;-66
2022/12/03 06:27:25;;;;;;;18.23;10.57;;;2.40;99.90;;;;;;4997166;28;20046;-65
2022/12/03 06:29:50;;;;;;;21.02;11.52;;;2.30;99.90;;;;;;4997334;28;20110;-65
2022/12/03 06:32:16;;;;;;;19.92;10.98;;;2.70;99.90;;;;;;5018548;28;20553;-65
2022/12/03 06:34:42;;;;;;;20.13;10.75;;;2.30;99.90;;;;;;5074421;28;20045;-66
2022/12/03 06:37:07;;;;;;;21.40;11.43;;;2.30;99.90;;;;;;5022415;28;20059;-65
2022/12/03 06:39:33;;;;;;;20.13;11.35;;;2.20;99.90;;;;;;5017627;28;20042;-65
2022/12/03 06:41:59;;;;;;;19.92;12.05;;;2.20;99.90;;;;;;5032357;28;20569;-65
2022/12/03 06:44:24;;;;;;;19.27;10.75;;;2.20;99.90;;;;;;5035817;28;20072;-65
2022/12/03 06:46:50;;;;;;;21.60;11.18;;;2.20;99.90;;;;;;5034925;28;20053;-65
2022/12/03 06:49:16;;;;;;;18.70;10.38;;;2.20;99.90;;;;;;5041717;28;20042;-66
2022/12/03 06:51:42;;;;;;;19.23;10.88;;;2.10;99.90;;;;;;5084019;28;20079;-65
2022/12/03 06:54:08;;;;;;;21.13;10.98;;;2.10;99.90;;;;;;5072218;28;20041;-66
2022/12/03 06:56:33;;;;;;;17.10;10.68;;;2.10;99.90;;;;;;5037551;28;20045;-65
2022/12/03 06:58:59;;;;;;;19.05;10.00;;;2.10;99.90;;;;;;5103279;28;20116;-66
2022/12/03 07:01:25;;;;;;;21.13;12.40;;;2.10;99.90;;;;;;5121195;28;20039;-66
2022/12/03 07:03:51;;;;;;;20.38;11.20;;;3.00;99.90;;;;;;5077727;28;20052;-66
2022/12/03 07:06:16;;;;;;;22.83;11.60;;;2.10;99.90;;;;;;5104697;28;20082;-65
2022/12/03 07:08:42;;;;;;;22.83;12.05;;;2.10;99.90;;;;;;5022615;28;20050;-66
2022/12/03 07:11:29;;;;;;;19.13;11.23;;;2.10;99.90;;;;;;5018848;28;20038;-65
2022/12/03 07:13:53;;;;;;;21.30;11.33;;;2.10;99.90;;;;;;5050115;28;20099;-65
2022/12/03 07:16:19;;;;;;;20.10;10.48;;;2.10;99.90;;;;;;5118760;28;20191;-66
2022/12/03 07:18:45;;;;;;;20.45;11.30;;;2.10;99.90;;;;;;5062767;28;20101;-66
2022/12/03 07:21:11;;;;;;;22.17;10.98;;;2.10;99.90;;;;;;5104185;28;20041;-65
2022/12/03 07:23:37;;;;;;;20.10;11.23;;;2.00;99.90;;;;;;5034702;28;20057;-65
2022/12/03 07:26:03;;;;;;;20.20;11.52;;;2.10;99.90;;;;;;5007406;28;20136;-65
2022/12/03 07:28:28;;;;;;;22.52;10.52;;;2.00;99.90;;;;;;4995769;28;20060;-65
2022/12/03 07:30:54;;;;;;;22.88;11.65;;;2.00;99.90;;;;;;5071832;28;20050;-66
2022/12/03 07:33:20;;;;;;;21.30;11.07;;;1.90;99.90;;;;;;5071653;28;20094;-66
2022/12/03 07:35:45;;;;;;;20.30;10.68;;;2.60;99.90;;;;;;5085785;28;20040;-65
2022/12/03 07:38:11;;;;;;;22.60;11.15;;;2.00;99.90;;;;;;5117822;28;20399;-65
2022/12/03 07:40:37;;;;;;;21.00;11.27;;;1.90;99.90;;;;;;5050103;28;20041;-66
2022/12/03 07:43:03;;;;;;;19.55;11.07;;;1.90;99.90;;;;;;5035908;28;20069;-66
2022/12/03 07:45:29;;;;;;;21.33;11.88;;;1.90;99.90;;;;;;5034831;28;20077;-66
2022/12/03 07:47:54;;;;;;;21.40;11.18;;;1.90;99.90;;;;;;5028737;28;20517;-65
2022/12/03 07:50:20;;;;;;;19.85;11.25;;;1.90;99.90;;;;;;5013353;28;20056;-65
2022/12/03 07:52:46;;;;;;;19.35;10.45;;;1.90;99.90;;;;;;5015237;28;20046;-65
2022/12/03 07:55:12;;;;;;;19.65;10.65;;;2.00;99.90;;;;;;5013546;28;20045;-65
2022/12/03 07:57:38;;;;;;;19.75;10.75;;;1.80;99.90;;;;;;5072034;28;20051;-65
2022/12/03 08:00:05;;;;;;;22.45;11.05;;;1.80;99.90;;;;;;5046941;28;20049;-65
2022/12/03 08:02:30;;;;;;;23.50;11.98;;;1.80;99.90;;;;;;5118355;28;20661;-65
2022/12/03 08:04:56;;;;;;;21.45;10.25;;;1.80;99.90;;;;;;5075243;28;20074;-65
2022/12/03 08:07:22;;;;;;;22.60;11.30;;;2.00;99.90;;;;;;4993705;28;20504;-65
2022/12/03 08:09:49;;;;;;;19.58;10.38;;;1.90;99.90;;;;;;4996909;28;20042;-65
2022/12/03 08:12:17;;;;;;;20.30;10.55;;;1.80;99.90;;;;;;4995153;28;20114;-67
2022/12/03 08:14:43;;;;;;;21.70;11.80;;;1.90;99.90;;;;;;5022898;28;20049;-65
2022/12/03 08:17:13;;;;;;;20.63;10.77;;;1.80;99.90;;;;;;5034991;28;20088;-66
2022/12/03 08:19:44;;;;;;;18.75;9.77;;;1.80;99.90;;;;;;5034386;28;20058;-66
2022/12/03 08:22:11;;;;;;;22.35;11.45;;;1.80;99.90;;;;;;5036102;28;20414;-65
2022/12/03 08:24:37;;;;;;;20.45;10.40;;;1.80;99.90;;;;;;5034314;28;20121;-65
2022/12/03 08:27:15;;;;;;;18.67;9.40;;;1.80;99.90;;;;;;5035395;28;20080;-66
2022/12/03 08:29:41;;;;;;;19.98;10.63;;;1.80;99.90;;;;;;5035707;28;20102;-66
2022/12/03 08:32:09;;;;;;;21.10;10.60;;;1.80;99.90;;;;;;5118411;28;20048;-65
2022/12/03 08:34:40;;;;;;;18.15;10.43;;;1.80;99.90;;;;;;5119342;28;20069;-65
2022/12/03 08:37:15;;;;;;;19.38;10.73;;;1.80;99.90;;;;;;5117467;28;20165;-65
2022/12/03 08:39:48;;;;;;;19.92;10.65;;;2.00;99.90;;;;;;5119596;28;20054;-66
2022/12/03 08:42:42;;;;;;;20.52;10.68;;;1.80;99.90;;;;;;5116700;28;20047;-66
2022/12/03 08:45:38;;;;;;;21.02;10.30;;;1.80;99.90;;;;;;5118154;28;20083;-66
2022/12/03 08:48:07;;;;;;;18.25;10.00;;;1.80;99.90;;;;;;5119201;28;20070;-65
2022/12/03 08:50:39;;;;;;;17.95;10.18;;;1.80;99.90;;;;;;5116044;28;20457;-65
2022/12/03 08:53:20;;;;;;;19.55;10.95;;;1.80;99.90;;;;;;5118687;28;20585;-66
2022/12/03 08:55:50;;;;;;;23.02;10.85;;;1.80;99.90;;;;;;5118231;28;20043;-66
2022/12/03 08:58:21;;;;;;;19.85;10.88;;;1.80;99.90;;;;;;5117244;28;20069;-67
2022/12/03 09:00:53;;;;;;;17.60;9.73;;;1.80;99.90;;;;;;5100836;28;20519;-66
2022/12/03 09:03:19;;;;;;;20.10;11.65;;;1.70;99.90;;;;;;5115509;28;20044;-66
2022/12/03 09:05:44;;;;;;;19.08;10.65;;;1.70;99.90;;;;;;5049195;28;20052;-65
2022/12/03 09:08:10;;;;;;;19.50;10.75;;;1.80;99.90;;;;;;5033871;28;20516;-65
2022/12/03 09:10:36;;;;;;;20.98;10.85;;;1.80;99.90;;;;;;5016516;28;20109;-66
2022/12/03 09:13:01;;;;;;;21.70;12.27;;;1.80;99.90;;;;;;5040722;28;20044;-65
2022/12/03 09:15:27;;;;;;;20.50;11.18;;;1.80;99.90;;;;;;5029157;28;20101;-65
2022/12/03 09:17:53;;;;;;;21.52;11.80;;;1.90;99.90;;;;;;5003322;28;20057;-66
2022/12/03 09:20:19;;;;;;;20.13;11.00;;;1.80;99.90;;;;;;5002787;28;20406;-65
2022/12/03 09:22:44;;;;;;;20.67;12.15;;;1.90;99.90;;;;;;5005555;28;20052;-65
2022/12/03 09:25:10;;;;;;;24.10;12.25;;;1.90;99.90;;;;;;5002002;28;20041;-65
2022/12/03 09:27:36;;;;;;;21.83;11.30;;;1.90;99.90;;;;;;5002818;28;20054;-65
2022/12/03 09:30:03;;;;;;;25.40;12.73;;;1.90;99.90;;;;;;5000734;28;20117;-65
2022/12/03 09:32:28;;;;;;;20.83;11.30;;;2.00;99.90;;;;;;5008783;28;20460;-66
2022/12/03 09:34:54;;;;;;;21.50;11.52;;;2.70;99.90;;;;;;5004368;28;20030;-65
2022/12/03 09:37:21;;;;;;;23.35;11.40;;;2.00;99.90;;;;;;5001540;28;20042;-66
2022/12/03 09:39:47;;;;;;;22.98;11.38;;;2.10;99.90;;;;;;5001810;28;20509;-66
2022/12/03 09:42:13;;;;;;;22.38;12.10;;;2.10;99.90;;;;;;4993587;28;20040;-66
2022/12/03 09:44:39;;;;;;;25.00;12.13;;;2.10;99.90;;;;;;5002189;28;20066;-65
2022/12/03 09:47:06;;;;;;;23.05;11.45;;;2.10;99.90;;;;;;5010707;28;20054;-65
2022/12/03 09:49:34;;;;;;;25.23;13.32;;;2.20;99.90;;;;;;5012416;28;20578;-65
2022/12/03 09:52:01;;;;;;;22.45;11.55;;;2.20;99.90;;;;;;5012444;28;20073;-66
2022/12/03 09:54:28;;;;;;;20.27;12.05;;;2.20;99.90;;;;;;5014508;28;20101;-66
2022/12/03 09:56:56;;;;;;;23.20;12.35;;;2.20;99.90;;;;;;5018200;28;20146;-67
2022/12/03 09:59:25;;;;;;;20.77;11.38;;;2.30;99.90;;;;;;5015934;28;20071;-66
2022/12/03 10:01:52;;;;;;;20.02;11.02;;;2.30;99.90;;;;;;5017359;28;20058;-66
2022/12/03 10:04:18;;;;;;;21.60;12.27;;;2.40;99.90;;;;;;5040394;28;20044;-66
2022/12/03 10:06:44;;;;;;;22.92;12.50;;;2.40;99.90;;;;;;5120428;28;20031;-66
2022/12/03 10:09:13;;;;;;;23.17;12.38;;;2.40;99.90;;;;;;5120259;28;20054;-66
2022/12/03 10:11:39;;;;;;;23.00;11.88;;;2.40;99.90;;;;;;5118787;28;20044;-66
2022/12/03 10:14:05;;;;;;;22.63;12.20;;;2.60;99.90;;;;;;5078262;28;20672;-66
2022/12/03 10:16:32;;;;;;;20.77;11.63;;;2.40;99.90;;;;;;5120653;28;20080;-65
2022/12/03 10:18:59;;;;;;;24.63;11.63;;;2.40;99.90;;;;;;5121544;28;20052;-67
2022/12/03 10:21:35;;;;;;;22.80;11.77;;;2.40;99.90;;;;;;5121437;28;20507;-65
2022/12/03 10:24:18;;;;;;;22.05;12.10;;;2.60;99.90;;;;;;5033201;28;20572;-65
2022/12/03 10:26:45;;;;;;;18.88;10.52;;;3.50;99.90;;;;;;5008616;28;20050;-66
2022/12/03 10:29:24;;;;;;;19.85;10.75;;;2.40;99.90;;;;;;5004412;28;20053;-66
2022/12/03 10:32:01;;;;;;;23.23;11.63;;;2.40;99.90;;;;;;5006931;28;20058;-66
2022/12/03 10:34:32;;;;;;;20.48;11.45;;;2.40;99.90;;;;;;5006965;28;20054;-65
2022/12/03 10:37:16;;;;;;;23.58;12.65;;;2.40;99.90;;;;;;5001889;28;20038;-67
2022/12/03 10:40:10;;;;;;;19.50;11.10;;;2.40;99.90;;;;;;5007293;28;20110;-67
2022/12/03 10:42:38;;;;;;;19.23;10.50;;;2.40;99.90;;;;;;5006759;28;20050;-66
2022/12/03 10:45:21;;;;;;;19.80;10.82;;;2.40;99.90;;;;;;5012920;28;20050;-67
2022/12/03 10:48:10;;;;;;;19.15;10.93;;;2.40;99.90;;;;;;4991041;28;20050;-66
2022/12/03 10:50:44;;;;;;;20.48;11.05;;;2.40;99.90;;;;;;5004136;28;20038;-66
2022/12/03 10:53:11;;;;;;;22.52;12.40;;;2.50;99.90;;;;;;5005153;28;20046;-66
2022/12/03 10:55:39;;;;;;;22.40;11.98;;;2.50;99.90;;;;;;5005924;28;20586;-68
2022/12/03 10:58:11;;;;;;;19.95;11.10;;;2.60;99.90;;;;;;4995517;28;20119;-66
2022/12/03 11:00:36;;;;;;;20.73;11.82;;;2.60;99.90;;;;;;5004780;28;20046;-67
2022/12/03 11:03:02;;;;;;;20.70;11.52;;;2.70;99.90;;;;;;4992928;28;20050;-66
2022/12/03 11:05:28;;;;;;;19.30;10.75;;;3.60;99.90;;;;;;5005264;28;20077;-66
2022/12/03 11:07:55;;;;;;;21.73;11.88;;;3.40;99.90;;;;;;5002110;28;20049;-66
2022/12/03 11:10:21;;;;;;;18.30;9.63;;;2.80;99.90;;;;;;5005727;28;20499;-65
2022/12/03 11:13:24;;;;;;;21.58;11.05;;;2.80;99.90;;;;;;5015345;28;20065;-65
2022/12/03 11:15:51;;;;;;;20.50;11.13;;;2.80;99.90;;;;;;5004762;28;20050;-66
2022/12/03 11:18:43;;;;;;;19.48;11.43;;;2.80;99.90;;;;;;5005434;28;20050;-66
2022/12/03 11:21:12;;;;;;;21.02;10.43;;;2.90;99.90;;;;;;5023280;28;20073;-65
2022/12/03 11:23:43;;;;;;;20.55;10.90;;;3.00;99.90;;;;;;5014566;28;20448;-65
2022/12/03 11:26:35;;;;;;;22.20;11.50;;;3.00;99.90;;;;;;5005084;28;20126;-65
2022/12/03 11:29:01;;;;;;;20.58;11.70;;;3.10;99.90;;;;;;5020126;28;20050;-66
2022/12/03 11:31:35;;;;;;;18.40;10.57;;;3.10;99.90;;;;;;5009716;28;20069;-65
2022/12/03 11:34:19;;;;;;;22.98;11.23;;;3.20;99.90;;;;;;5007555;28;20307;-65
2022/12/03 11:37:10;;;;;;;21.35;11.15;;;3.20;99.90;;;;;;5004267;28;20054;-66
2022/12/03 11:39:51;;;;;;;18.98;11.43;;;3.10;99.90;;;;;;5008850;28;20133;-65
2022/12/03 11:42:25;;;;;;;23.95;12.48;;;3.00;99.90;;;;;;4997298;28;20050;-66
2022/12/03 11:45:04;;;;;;;21.15;11.02;;;2.90;99.90;;;;;;4993613;28;20117;-65
2022/12/03 11:47:42;;;;;;;21.20;12.20;;;2.80;99.90;;;;;;5010635;28;20054;-66
2022/12/03 11:50:16;;;;;;;21.52;12.07;;;2.60;99.90;;;;;;5003621;28;20058;-65
2022/12/03 11:52:44;;;;;;;21.38;11.70;;;2.60;99.90;;;;;;5015177;28;20046;-65
2022/12/03 11:55:17;;;;;;;20.60;11.82;;;2.50;99.90;;;;;;5004444;28;20061;-65
2022/12/03 11:57:44;;;;;;;21.33;12.45;;;2.40;99.90;;;;;;5000599;28;20452;-65
2022/12/03 12:00:21;;;;;;;19.65;10.85;;;2.30;99.90;;;;;;4997156;28;20324;-65
2022/12/03 12:02:48;;;;;;;20.42;11.18;;;2.20;99.90;;;;;;4994957;28;20084;-65
2022/12/03 12:05:22;;;;;;;22.00;11.38;;;2.20;99.90;;;;;;5021446;28;20114;-65
2022/12/03 12:07:48;;;;;;;22.60;11.95;;;2.10;99.90;;;;;;5034256;28;20060;-65
2022/12/03 12:10:45;;;;;;;20.70;11.25;;;2.30;99.90;;;;;;5034679;28;20041;-65
2022/12/03 12:13:29;;;;;;;22.98;11.48;;;2.10;99.90;;;;;;5033780;28;20053;-66
2022/12/03 12:15:55;;;;;;;22.73;11.55;;;2.00;99.90;;;;;;5001046;28;20038;-66
2022/12/03 12:18:43;;;;;;;20.83;11.40;;;2.00;99.90;;;;;;4996685;28;20050;-66
2022/12/03 12:21:48;;;;;;;21.30;11.38;;;2.00;99.90;;;;;;5005899;28;20143;-66
2022/12/03 12:24:39;;;;;;;20.45;11.90;;;2.00;99.90;;;;;;5004309;28;20053;-66
2022/12/03 12:27:10;;;;;;;21.08;11.75;;;2.00;99.90;;;;;;5006774;28;20038;-66
2022/12/03 12:29:37;;;;;;;22.15;12.20;;;2.40;99.90;;;;;;5001504;28;20046;-66
2022/12/03 12:32:09;;;;;;;23.77;12.48;;;2.10;99.90;;;;;;5004212;28;20046;-66
2022/12/03 12:34:40;;;;;;;23.42;11.73;;;2.10;99.90;;;;;;5011103;28;20053;-67
2022/12/03 12:37:19;;;;;;;22.73;11.80;;;2.20;99.90;;;;;;5001380;28;20053;-66
2022/12/03 12:39:45;;;;;;;23.27;12.75;;;2.20;99.90;;;;;;5006644;28;20062;-66
2022/12/03 12:42:29;;;;;;;22.63;11.98;;;2.20;99.90;;;;;;5002074;28;20690;-66
2022/12/03 12:45:00;;;;;;;22.15;12.07;;;3.20;99.90;;;;;;5005046;28;20049;-66
2022/12/03 12:47:28;;;;;;;21.13;10.98;;;2.30;99.90;;;;;;5004765;28;20106;-65
2022/12/03 12:49:55;;;;;;;23.20;13.25;;;2.20;99.90;;;;;;5001837;28;20034;-66
2022/12/03 12:52:21;;;;;;;24.33;11.70;;;2.20;99.90;;;;;;5005492;28;20263;-66
2022/12/03 12:54:46;;;;;;;22.92;12.05;;;2.20;99.90;;;;;;5002916;28;20052;-66
2022/12/03 12:57:17;;;;;;;20.77;12.15;;;2.20;99.90;;;;;;5010143;28;20034;-66
2022/12/03 12:59:42;;;;;;;19.65;11.38;;;2.20;99.90;;;;;;5004301;28;20049;-66
2022/12/03 13:02:29;;;;;;;21.08;11.68;;;2.10;99.90;;;;;;4985570;28;20078;-66
2022/12/03 13:04:55;;;;;;;23.63;12.90;;;2.10;99.90;;;;;;5008577;28;20083;-66